Time;durP1;ratioP1;P1;durP2;ratioP2;P2;SDS_P1;SDS_P2;PMS_P1;PMS_P2;Temp;Humidity;BMP_temperature;BMP_pressure;BME280_temperature;BME280_humidity;BME280_pressure;Samples;Min_cycle;Max_cycle;Signal;HPM_P1;HPM_P2
2023/08/16 00:02:14;;;;;;;5.07;3.20;;;21.70;99.90;;;;;;5029795;28;20227;-73
2023/08/16 00:04:41;;;;;;;3.53;3.23;;;21.60;99.90;;;;;;5016689;28;20223;-73
2023/08/16 00:07:08;;;;;;;3.60;3.30;;;21.50;99.90;;;;;;5016031;28;20239;-74
2023/08/16 00:09:33;;;;;;;3.43;3.13;;;21.50;99.90;;;;;;5031735;28;20467;-74
2023/08/16 00:11:59;;;;;;;3.70;2.87;;;21.50;99.90;;;;;;5016319;28;21383;-73
2023/08/16 00:14:25;;;;;;;3.57;3.27;;;21.50;99.90;;;;;;5031964;28;20333;-73
2023/08/16 00:16:50;;;;;;;3.80;3.50;;;21.50;99.90;;;;;;4998118;28;20295;-74
2023/08/16 00:19:16;;;;;;;4.10;3.80;;;21.50;99.90;;;;;;5031423;28;20232;-73
2023/08/16 00:21:43;;;;;;;3.97;3.57;;;21.50;99.90;;;;;;4999594;28;20864;-73
2023/08/16 00:24:09;;;;;;;3.83;3.53;;;21.40;99.90;;;;;;4999192;28;20260;-73
2023/08/16 00:26:34;;;;;;;3.90;3.00;;;21.30;99.90;;;;;;5016337;28;20474;-74
2023/08/16 00:29:02;;;;;;;4.00;3.50;;;21.40;99.90;;;;;;5000858;28;20212;-73
2023/08/16 00:31:27;;;;;;;3.43;3.23;;;21.40;99.90;;;;;;5013954;28;20262;-73
2023/08/16 00:33:53;;;;;;;4.70;4.20;;;21.40;99.90;;;;;;4999416;28;20473;-73
2023/08/16 00:36:19;;;;;;;6.40;4.27;;;21.40;99.90;;;;;;5001812;28;20228;-73
2023/08/16 00:38:44;;;;;;;3.97;3.33;;;21.30;99.90;;;;;;5019391;28;20230;-73
2023/08/16 00:41:11;;;;;;;4.40;3.07;;;21.30;99.90;;;;;;5019760;28;20223;-73
2023/08/16 00:43:37;;;;;;;3.50;3.20;;;21.30;99.90;;;;;;5017686;28;20849;-73
2023/08/16 00:46:03;;;;;;;3.60;3.30;;;21.30;99.90;;;;;;5020879;28;20486;-74
2023/08/16 00:48:31;;;;;;;3.43;3.00;;;21.30;99.90;;;;;;5019877;28;20512;-73
2023/08/16 00:50:57;;;;;;;3.63;3.33;;;21.30;99.90;;;;;;5036278;28;20467;-73
2023/08/16 00:53:23;;;;;;;3.57;3.27;;;21.30;99.90;;;;;;5016558;28;21118;-73
2023/08/16 00:55:50;;;;;;;3.83;3.53;;;21.30;99.90;;;;;;5035194;28;20251;-73
2023/08/16 00:58:16;;;;;;;3.47;3.17;;;21.30;99.90;;;;;;5017328;28;20483;-73
2023/08/16 01:00:42;;;;;;;3.60;3.30;;;21.30;99.90;;;;;;5017668;28;20469;-73
2023/08/16 01:03:08;;;;;;;4.30;3.90;;;21.30;99.90;;;;;;5018144;28;20500;-73
2023/08/16 01:05:33;;;;;;;4.13;3.73;;;21.30;99.90;;;;;;5018619;28;20231;-74
2023/08/16 01:08:01;;;;;;;5.90;3.40;;;21.20;99.90;;;;;;5017915;28;20555;-73
2023/08/16 01:10:56;;;;;;;4.60;3.70;;;21.20;99.90;;;;;;5019511;28;20476;-73
2023/08/16 01:13:28;;;;;;;6.17;4.10;;;21.20;99.90;;;;;;5017435;28;20466;-74
2023/08/16 01:15:56;;;;;;;4.90;4.13;;;21.20;99.90;;;;;;5018260;28;20987;-73
2023/08/16 01:18:25;;;;;;;5.60;3.93;;;21.20;99.90;;;;;;5035290;28;20473;-74
2023/08/16 01:20:52;;;;;;;4.23;3.83;;;21.20;99.90;;;;;;5020144;28;20468;-73
2023/08/16 01:23:36;;;;;;;4.20;3.80;;;21.10;99.90;;;;;;5018043;28;20504;-73
2023/08/16 01:26:13;;;;;;;4.03;3.73;;;21.10;99.90;;;;;;5035994;28;20467;-73
2023/08/16 01:28:39;;;;;;;4.60;4.17;;;21.00;99.90;;;;;;5018362;28;20450;-73
2023/08/16 01:31:06;;;;;;;5.10;4.20;;;21.00;99.90;;;;;;5038294;28;20476;-73
2023/08/16 01:33:32;;;;;;;5.20;4.33;;;20.90;99.90;;;;;;5036936;28;20469;-73
2023/08/16 01:35:57;;;;;;;5.00;4.33;;;20.80;99.90;;;;;;5018742;28;20559;-73
2023/08/16 01:38:25;;;;;;;7.37;4.60;;;20.60;99.90;;;;;;5020528;28;20790;-73
2023/08/16 01:41:02;;;;;;;4.57;4.17;;;20.40;99.90;;;;;;5037880;28;20882;-73
2023/08/16 01:43:30;;;;;;;5.10;3.87;;;20.60;99.90;;;;;;5015544;28;21083;-73
2023/08/16 01:45:58;;;;;;;3.33;3.03;;;20.70;99.90;;;;;;5007908;28;20987;-73
2023/08/16 01:48:25;;;;;;;5.60;4.30;;;20.80;99.90;;;;;;5020933;28;20562;-73
2023/08/16 01:50:51;;;;;;;5.17;4.67;;;20.80;99.90;;;;;;5037162;28;21073;-73
2023/08/16 01:53:18;;;;;;;4.80;3.73;;;20.90;99.90;;;;;;5020484;28;20501;-73
2023/08/16 01:55:44;;;;;;;4.50;4.10;;;20.90;99.90;;;;;;5021702;28;20523;-73
2023/08/16 01:58:10;;;;;;;4.67;3.93;;;20.70;99.90;;;;;;5040925;28;20601;-73
2023/08/16 02:00:36;;;;;;;5.57;3.93;;;20.60;99.90;;;;;;5020933;28;20453;-73
2023/08/16 02:03:03;;;;;;;4.57;4.03;;;20.80;99.90;;;;;;5019340;28;20215;-73
2023/08/16 02:05:28;;;;;;;4.20;3.80;;;20.80;99.90;;;;;;5036844;28;20974;-73
2023/08/16 02:07:54;;;;;;;4.43;4.03;;;20.90;99.90;;;;;;5021786;28;20216;-73
2023/08/16 02:10:19;;;;;;;4.63;4.20;;;20.90;99.90;;;;;;5036776;28;20223;-73
2023/08/16 02:12:46;;;;;;;3.43;3.10;;;21.00;99.90;;;;;;5021179;28;20294;-73
2023/08/16 02:15:13;;;;;;;4.60;3.87;;;20.90;99.90;;;;;;5019018;28;21165;-73
2023/08/16 02:17:38;;;;;;;3.90;3.50;;;20.90;99.90;;;;;;5006731;28;20223;-74
2023/08/16 02:20:06;;;;;;;4.30;3.80;;;20.90;99.90;;;;;;5006022;28;20491;-73
2023/08/16 02:22:31;;;;;;;3.77;3.13;;;20.90;99.90;;;;;;5004457;28;20278;-73
2023/08/16 02:24:59;;;;;;;5.07;4.10;;;21.00;99.90;;;;;;4991169;28;20481;-73
2023/08/16 02:27:25;;;;;;;4.77;3.87;;;21.00;99.90;;;;;;5035024;28;20486;-73
2023/08/16 02:29:51;;;;;;;4.60;3.73;;;21.00;99.90;;;;;;4999648;28;20224;-73
2023/08/16 02:32:18;;;;;;;4.83;3.80;;;21.00;99.90;;;;;;4999171;28;20597;-74
2023/08/16 02:34:44;;;;;;;4.80;3.93;;;20.90;99.90;;;;;;5020448;28;20471;-73
2023/08/16 02:37:10;;;;;;;4.00;3.40;;;20.90;99.90;;;;;;5019301;28;20482;-73
2023/08/16 02:39:35;;;;;;;3.83;3.40;;;20.90;99.90;;;;;;5001353;28;21050;-73
2023/08/16 02:42:01;;;;;;;4.00;3.60;;;20.90;99.90;;;;;;5019505;28;20308;-73
2023/08/16 02:44:27;;;;;;;3.70;2.90;;;20.90;99.90;;;;;;5033298;28;20262;-73
2023/08/16 02:46:53;;;;;;;4.63;3.60;;;20.90;99.90;;;;;;5017139;28;20229;-73
2023/08/16 02:49:18;;;;;;;5.03;3.60;;;20.80;99.90;;;;;;4999153;28;20212;-74
2023/08/16 02:51:44;;;;;;;3.43;3.03;;;20.80;99.90;;;;;;5019150;28;20238;-73
2023/08/16 02:54:10;;;;;;;4.80;3.93;;;20.80;99.90;;;;;;5019508;28;20216;-73
2023/08/16 02:56:35;;;;;;;4.70;3.30;;;20.80;99.90;;;;;;5003278;28;20227;-73
2023/08/16 02:59:01;;;;;;;3.30;3.00;;;20.80;99.90;;;;;;5019384;28;21019;-73
2023/08/16 03:01:27;;;;;;;4.10;3.60;;;20.80;99.90;;;;;;4999705;28;20255;-74
2023/08/16 03:03:52;;;;;;;4.03;3.17;;;20.70;99.90;;;;;;5001691;28;20330;-73
2023/08/16 03:06:18;;;;;;;3.77;3.30;;;20.80;99.90;;;;;;5034459;28;20259;-73
2023/08/16 03:08:44;;;;;;;3.37;2.70;;;20.80;99.90;;;;;;4988078;28;20227;-74
2023/08/16 03:11:11;;;;;;;3.00;2.70;;;20.80;99.90;;;;;;5002771;28;20232;-73
2023/08/16 03:13:37;;;;;;;3.90;3.50;;;20.80;99.90;;;;;;5001928;28;20948;-73
2023/08/16 03:16:03;;;;;;;3.80;3.40;;;20.80;99.90;;;;;;5019376;28;20492;-73
2023/08/16 03:18:29;;;;;;;3.57;3.07;;;20.80;99.90;;;;;;5023026;28;20232;-73
2023/08/16 03:20:55;;;;;;;3.03;2.73;;;20.80;99.90;;;;;;5020888;28;20462;-73
2023/08/16 03:23:21;;;;;;;3.63;3.13;;;20.70;99.90;;;;;;5036868;28;21015;-73
2023/08/16 03:25:46;;;;;;;3.80;3.17;;;20.60;99.90;;;;;;5022208;28;20255;-73
2023/08/16 03:28:13;;;;;;;3.30;3.00;;;20.60;99.90;;;;;;4987799;28;20231;-73
2023/08/16 03:30:40;;;;;;;3.70;3.30;;;20.60;99.90;;;;;;4998251;28;20457;-73
2023/08/16 03:33:06;;;;;;;3.70;3.30;;;20.70;99.90;;;;;;4986983;28;20459;-73
2023/08/16 03:35:32;;;;;;;3.13;2.90;;;20.70;99.90;;;;;;5036056;28;20338;-73
2023/08/16 03:37:58;;;;;;;2.90;2.70;;;20.80;99.90;;;;;;5004448;28;21107;-73
2023/08/16 03:40:24;;;;;;;3.10;2.70;;;20.80;99.90;;;;;;5004552;28;20213;-73
2023/08/16 03:42:50;;;;;;;2.47;2.27;;;20.80;99.90;;;;;;5019002;28;20482;-73
2023/08/16 03:45:16;;;;;;;2.63;2.43;;;20.80;99.90;;;;;;5033814;28;20839;-73
2023/08/16 03:47:43;;;;;;;2.63;2.43;;;20.80;99.90;;;;;;5002552;28;20788;-73
2023/08/16 03:50:09;;;;;;;4.07;2.93;;;20.70;99.90;;;;;;4998435;28;20217;-73
2023/08/16 03:52:35;;;;;;;3.43;3.10;;;20.80;99.90;;;;;;5001724;28;20497;-73
2023/08/16 03:55:00;;;;;;;3.60;3.17;;;20.80;99.90;;;;;;5006332;28;20412;-73
2023/08/16 03:57:26;;;;;;;3.83;3.17;;;20.70;99.90;;;;;;5021948;28;20224;-73
2023/08/16 03:59:54;;;;;;;3.47;2.73;;;20.70;99.90;;;;;;5007654;28;20232;-73
2023/08/16 04:02:21;;;;;;;4.27;3.10;;;20.70;99.90;;;;;;5019641;28;20227;-74
2023/08/16 04:04:51;;;;;;;3.47;2.80;;;20.80;99.90;;;;;;5004055;28;20575;-73
2023/08/16 04:07:17;;;;;;;3.47;3.17;;;20.80;99.90;;;;;;5019841;28;20239;-73
2023/08/16 04:09:42;;;;;;;3.43;3.10;;;20.70;99.90;;;;;;5003563;28;20471;-74
2023/08/16 04:12:08;;;;;;;2.57;2.37;;;20.60;99.90;;;;;;5004721;28;20960;-73
2023/08/16 04:14:34;;;;;;;3.50;3.20;;;20.60;99.90;;;;;;4986220;28;20750;-74
2023/08/16 04:16:59;;;;;;;6.23;3.27;;;20.60;99.90;;;;;;5003140;28;20825;-73
2023/08/16 04:19:25;;;;;;;3.50;3.20;;;20.60;99.90;;;;;;5005136;28;20358;-73
2023/08/16 04:21:51;;;;;;;3.57;3.20;;;20.60;99.90;;;;;;5004980;28;20227;-73
2023/08/16 04:24:18;;;;;;;3.03;2.73;;;20.60;99.90;;;;;;5002635;28;20385;-73
2023/08/16 04:26:43;;;;;;;3.00;2.80;;;20.70;99.90;;;;;;5003797;28;20902;-73
2023/08/16 04:29:09;;;;;;;3.10;2.80;;;20.70;99.90;;;;;;5005957;28;20237;-73
2023/08/16 04:31:35;;;;;;;3.00;2.57;;;20.60;99.90;;;;;;5003015;28;20401;-73
2023/08/16 04:34:01;;;;;;;3.00;2.70;;;20.60;99.90;;;;;;5003460;28;20229;-73
2023/08/16 04:36:27;;;;;;;2.73;2.53;;;20.60;99.90;;;;;;5022164;28;20286;-73
2023/08/16 04:38:52;;;;;;;2.50;2.30;;;20.70;99.90;;;;;;5003493;28;20604;-73
2023/08/16 04:41:18;;;;;;;3.03;2.70;;;20.70;99.90;;;;;;5035056;28;20702;-73
2023/08/16 04:43:44;;;;;;;4.07;2.87;;;20.60;99.90;;;;;;5020878;28;20258;-73
2023/08/16 04:46:10;;;;;;;4.00;2.93;;;20.60;99.90;;;;;;4994633;28;20595;-73
2023/08/16 04:48:36;;;;;;;3.63;3.27;;;20.60;99.90;;;;;;5002257;28;20220;-73
2023/08/16 04:51:03;;;;;;;3.30;2.70;;;20.70;99.90;;;;;;5002649;28;20334;-73
2023/08/16 04:53:29;;;;;;;3.20;2.90;;;20.60;99.90;;;;;;5020634;28;20482;-73
2023/08/16 04:55:56;;;;;;;3.10;2.80;;;20.50;99.90;;;;;;5019770;28;20227;-73
2023/08/16 04:58:21;;;;;;;3.30;2.77;;;20.60;99.90;;;;;;5037429;28;21079;-73
2023/08/16 05:00:50;;;;;;;3.60;3.30;;;20.60;99.90;;;;;;5018084;28;20926;-74
2023/08/16 05:03:15;;;;;;;5.23;3.60;;;20.70;99.90;;;;;;5016769;28;20461;-73
2023/08/16 05:05:41;;;;;;;3.33;2.73;;;20.70;99.90;;;;;;5001692;28;20351;-74
2023/08/16 05:08:08;;;;;;;3.43;3.03;;;20.70;99.90;;;;;;5001146;28;20286;-73
2023/08/16 05:10:34;;;;;;;6.20;3.70;;;20.70;99.90;;;;;;5018878;28;20492;-73
2023/08/16 05:13:00;;;;;;;3.00;2.70;;;20.80;99.90;;;;;;5002680;28;20540;-73
2023/08/16 05:15:26;;;;;;;3.47;3.17;;;20.70;99.90;;;;;;5002961;28;20216;-73
2023/08/16 05:17:52;;;;;;;3.50;3.20;;;20.70;99.90;;;;;;5035711;28;20736;-73
2023/08/16 05:20:18;;;;;;;3.43;2.63;;;20.70;99.90;;;;;;4999844;28;20224;-73
2023/08/16 05:22:44;;;;;;;2.63;2.43;;;20.70;99.90;;;;;;5005500;28;20918;-73
2023/08/16 05:25:10;;;;;;;3.90;3.10;;;20.70;99.90;;;;;;5039229;28;20271;-73
2023/08/16 05:27:36;;;;;;;2.90;2.60;;;20.70;99.90;;;;;;5005789;28;20228;-73
2023/08/16 05:30:02;;;;;;;3.27;2.97;;;20.70;99.90;;;;;;5016094;28;20219;-73
2023/08/16 05:32:28;;;;;;;4.00;3.73;;;20.70;99.90;;;;;;5022796;28;20305;-73
2023/08/16 05:34:53;;;;;;;3.30;2.90;;;20.70;99.90;;;;;;5024445;28;20472;-73
2023/08/16 05:37:19;;;;;;;3.00;2.70;;;20.60;99.90;;;;;;5003719;28;20220;-74
2023/08/16 05:39:46;;;;;;;4.20;3.37;;;20.70;99.90;;;;;;5022161;28;20222;-73
2023/08/16 05:42:12;;;;;;;3.27;2.97;;;20.70;99.90;;;;;;5003069;28;20265;-73
2023/08/16 05:44:38;;;;;;;4.90;3.47;;;20.70;99.90;;;;;;4966300;28;20470;-74
2023/08/16 05:47:04;;;;;;;3.07;2.77;;;20.70;99.90;;;;;;4967162;28;20854;-74
2023/08/16 05:49:29;;;;;;;5.83;3.67;;;20.70;99.90;;;;;;4970629;28;20276;-73
2023/08/16 05:51:55;;;;;;;5.60;4.60;;;20.70;99.90;;;;;;4985477;28;20230;-73
2023/08/16 05:54:21;;;;;;;4.83;3.73;;;20.70;99.90;;;;;;4965505;28;20227;-73
2023/08/16 05:56:47;;;;;;;3.63;3.33;;;20.80;99.90;;;;;;4970901;28;20489;-74
2023/08/16 05:59:13;;;;;;;4.23;3.83;;;20.80;99.90;;;;;;4983446;28;20282;-73
2023/08/16 06:01:39;;;;;;;4.90;4.33;;;20.80;99.90;;;;;;4974722;28;20564;-73
2023/08/16 06:04:05;;;;;;;6.57;4.40;;;20.80;99.90;;;;;;4985670;28;20470;-73
2023/08/16 06:06:31;;;;;;;4.70;3.83;;;20.80;99.90;;;;;;4989454;28;20467;-74
2023/08/16 06:08:57;;;;;;;4.37;3.90;;;20.80;99.90;;;;;;4959779;28;20224;-73
2023/08/16 06:11:22;;;;;;;7.53;4.67;;;20.80;99.90;;;;;;4981578;28;20250;-73
2023/08/16 06:13:48;;;;;;;5.30;4.37;;;20.80;99.90;;;;;;4976981;28;20264;-75
2023/08/16 06:16:14;;;;;;;6.87;4.97;;;20.70;99.90;;;;;;4984979;28;20223;-74
2023/08/16 06:18:39;;;;;;;7.33;5.60;;;20.80;99.90;;;;;;5001344;28;20249;-74
2023/08/16 06:21:05;;;;;;;8.23;6.37;;;20.70;99.90;;;;;;4987046;28;20230;-74
2023/08/16 06:23:31;;;;;;;8.90;6.27;;;20.70;99.90;;;;;;5004598;28;20223;-74
2023/08/16 06:25:57;;;;;;;9.07;6.10;;;20.80;99.90;;;;;;4987200;28;20853;-74
2023/08/16 06:28:23;;;;;;;10.90;5.60;;;20.80;99.90;;;;;;5001723;28;20240;-74
2023/08/16 06:30:48;;;;;;;9.30;6.30;;;20.80;99.90;;;;;;4986486;28;20255;-74
2023/08/16 06:33:14;;;;;;;9.70;6.50;;;20.80;99.90;;;;;;4989572;28;20890;-74
2023/08/16 06:35:40;;;;;;;9.13;6.53;;;20.80;99.90;;;;;;4986980;28;20220;-74
2023/08/16 06:38:06;;;;;;;10.87;6.30;;;20.80;99.90;;;;;;4987991;28;20220;-74
2023/08/16 06:40:32;;;;;;;10.23;6.83;;;20.90;99.90;;;;;;4988686;28;20216;-74
2023/08/16 06:42:57;;;;;;;12.87;7.70;;;20.90;99.90;;;;;;5002594;28;20511;-73
2023/08/16 06:45:23;;;;;;;12.37;8.50;;;20.90;99.90;;;;;;4985224;28;20253;-73
2023/08/16 06:47:49;;;;;;;12.10;8.60;;;20.90;99.90;;;;;;4986796;28;20261;-74
2023/08/16 06:50:15;;;;;;;13.40;9.50;;;20.90;99.90;;;;;;4988148;28;20465;-74
2023/08/16 06:52:42;;;;;;;13.70;9.17;;;20.90;99.90;;;;;;4972631;28;20240;-73
2023/08/16 06:55:08;;;;;;;15.03;9.27;;;20.90;99.90;;;;;;4987126;28;20224;-73
2023/08/16 06:57:34;;;;;;;15.67;9.80;;;20.90;99.90;;;;;;4990441;28;20504;-73
2023/08/16 07:00:00;;;;;;;16.20;9.83;;;20.90;99.90;;;;;;5003917;28;20235;-74
2023/08/16 07:02:25;;;;;;;18.03;11.03;;;21.00;99.90;;;;;;5001453;28;20524;-73
2023/08/16 07:04:51;;;;;;;18.97;9.80;;;21.00;99.90;;;;;;4987306;28;20374;-73
2023/08/16 07:07:18;;;;;;;16.90;10.00;;;21.00;99.90;;;;;;5006030;28;20729;-74
2023/08/16 07:09:44;;;;;;;16.10;10.50;;;21.00;99.90;;;;;;4987986;28;20231;-74
2023/08/16 07:12:09;;;;;;;24.20;11.10;;;21.00;99.90;;;;;;4986335;28;20477;-74
2023/08/16 07:14:35;;;;;;;17.87;10.97;;;21.00;99.90;;;;;;5006151;28;20415;-74
2023/08/16 07:17:02;;;;;;;20.00;12.70;;;21.00;99.90;;;;;;4987760;28;20234;-73
2023/08/16 07:19:27;;;;;;;19.67;11.77;;;21.00;99.90;;;;;;5001248;28;20231;-73
2023/08/16 07:21:53;;;;;;;18.17;11.00;;;21.10;99.90;;;;;;5003588;28;20547;-73
2023/08/16 07:24:19;;;;;;;18.70;11.10;;;21.10;99.90;;;;;;5004305;28;20266;-73
2023/08/16 07:26:45;;;;;;;20.63;10.50;;;21.10;99.90;;;;;;4987228;28;20356;-74
2023/08/16 07:29:10;;;;;;;16.97;9.73;;;21.10;99.90;;;;;;4985499;28;20223;-73
2023/08/16 07:31:36;;;;;;;17.33;10.43;;;21.10;99.90;;;;;;4989102;28;20223;-74
2023/08/16 07:34:02;;;;;;;15.40;10.37;;;21.10;99.90;;;;;;5002855;28;20219;-73
2023/08/16 07:36:28;;;;;;;18.70;9.70;;;21.20;99.90;;;;;;4984821;28;20318;-74
2023/08/16 07:38:54;;;;;;;17.67;9.97;;;21.20;99.90;;;;;;4986207;28;20942;-72
2023/08/16 07:41:20;;;;;;;15.57;9.07;;;21.20;99.90;;;;;;4987584;28;20252;-74
2023/08/16 07:43:45;;;;;;;17.73;9.87;;;21.20;99.90;;;;;;4985793;28;20946;-74
2023/08/16 07:46:11;;;;;;;17.77;9.63;;;21.20;99.90;;;;;;4968480;28;20238;-75
2023/08/16 07:48:37;;;;;;;14.37;9.40;;;21.20;99.90;;;;;;4986799;28;20243;-74
2023/08/16 07:51:03;;;;;;;19.57;9.27;;;21.20;99.90;;;;;;4984457;28;20231;-74
2023/08/16 07:53:28;;;;;;;18.50;9.40;;;21.20;99.90;;;;;;4984707;28;20349;-74
2023/08/16 07:55:54;;;;;;;14.67;9.63;;;21.30;99.90;;;;;;4986135;28;20223;-73
2023/08/16 07:58:20;;;;;;;12.30;9.07;;;21.30;99.90;;;;;;4984396;28;20219;-74
2023/08/16 08:00:47;;;;;;;13.53;8.87;;;21.30;99.90;;;;;;4983331;28;20257;-72
2023/08/16 08:03:13;;;;;;;11.87;7.50;;;21.30;99.90;;;;;;4967788;28;20445;-74
2023/08/16 08:05:39;;;;;;;15.63;9.80;;;21.30;99.90;;;;;;4986408;28;20663;-74
2023/08/16 08:08:06;;;;;;;14.63;10.40;;;21.30;99.90;;;;;;4985710;28;20301;-74
2023/08/16 08:10:31;;;;;;;15.33;9.57;;;21.30;99.90;;;;;;4985870;28;20693;-73
2023/08/16 08:12:58;;;;;;;12.00;8.10;;;21.40;99.90;;;;;;5036965;28;20546;-74
2023/08/16 08:15:23;;;;;;;13.50;9.27;;;21.40;99.90;;;;;;5036254;28;20255;-74
2023/08/16 08:17:49;;;;;;;11.27;8.30;;;21.40;99.90;;;;;;5005453;28;21093;-74
2023/08/16 08:20:15;;;;;;;10.90;8.20;;;21.40;99.90;;;;;;5020407;28;20235;-74
2023/08/16 08:22:42;;;;;;;13.27;9.70;;;21.40;99.90;;;;;;5008360;28;20228;-74
2023/08/16 08:25:08;;;;;;;14.90;11.17;;;21.50;99.90;;;;;;4999898;28;20471;-74
2023/08/16 08:27:34;;;;;;;14.87;9.43;;;21.50;99.90;;;;;;5018745;28;20485;-74
2023/08/16 08:30:00;;;;;;;14.07;9.30;;;21.50;99.90;;;;;;5000841;28;20506;-74
2023/08/16 08:32:26;;;;;;;15.57;10.27;;;21.60;99.90;;;;;;5010042;28;20224;-74
2023/08/16 08:34:51;;;;;;;13.87;10.13;;;21.60;99.90;;;;;;4998165;28;20548;-74
2023/08/16 08:37:17;;;;;;;16.30;11.10;;;21.70;99.90;;;;;;5000599;28;20243;-74
2023/08/16 08:39:43;;;;;;;12.80;10.10;;;21.70;99.90;;;;;;5035560;28;20277;-73
2023/08/16 08:42:09;;;;;;;14.27;9.87;;;21.80;99.90;;;;;;5000924;28;20227;-74
2023/08/16 08:44:42;;;;;;;13.83;9.53;;;21.80;99.90;;;;;;5016572;28;20323;-74
2023/08/16 08:47:09;;;;;;;14.07;10.10;;;21.90;99.90;;;;;;5031639;28;21044;-74
2023/08/16 08:49:35;;;;;;;14.90;10.63;;;21.90;99.90;;;;;;5018527;28;20599;-74
2023/08/16 08:52:05;;;;;;;15.70;9.80;;;22.00;99.90;;;;;;5019213;28;20977;-74
2023/08/16 08:54:33;;;;;;;18.47;11.97;;;22.10;99.90;;;;;;5018597;28;20373;-73
2023/08/16 08:57:05;;;;;;;14.23;10.30;;;22.10;99.90;;;;;;5002390;28;20585;-74
2023/08/16 08:59:34;;;;;;;12.90;9.40;;;22.20;99.90;;;;;;5001546;28;20478;-74
2023/08/16 09:02:00;;;;;;;15.03;10.83;;;22.30;99.90;;;;;;5016929;28;20478;-74
2023/08/16 09:04:30;;;;;;;15.80;10.50;;;22.30;99.90;;;;;;4982534;28;20488;-74
2023/08/16 09:06:59;;;;;;;13.40;10.03;;;22.40;99.90;;;;;;4983764;28;20599;-74
2023/08/16 09:09:24;;;;;;;15.53;10.57;;;22.40;99.90;;;;;;4982981;28;20474;-74
2023/08/16 09:11:50;;;;;;;16.73;9.13;;;22.40;99.90;;;;;;4973163;28;20506;-75
2023/08/16 09:14:16;;;;;;;12.23;9.40;;;22.40;99.90;;;;;;4980176;28;20284;-74
2023/08/16 09:16:42;;;;;;;11.80;9.33;;;22.50;99.90;;;;;;4969053;28;20227;-74
2023/08/16 09:19:15;;;;;;;13.03;9.33;;;22.50;99.90;;;;;;4960768;28;20242;-74
2023/08/16 09:21:44;;;;;;;14.57;10.33;;;22.50;99.90;;;;;;4981710;28;20231;-74
2023/08/16 09:24:10;;;;;;;15.10;10.77;;;22.60;99.90;;;;;;4968328;28;21213;-74
2023/08/16 09:26:37;;;;;;;12.30;10.00;;;22.60;99.90;;;;;;4982588;28;21144;-74
2023/08/16 09:29:03;;;;;;;13.23;10.27;;;22.60;99.90;;;;;;4965277;28;20512;-74
2023/08/16 09:31:39;;;;;;;13.57;9.97;;;22.60;99.90;;;;;;4946642;28;20480;-74
2023/08/16 09:34:06;;;;;;;11.90;9.67;;;22.70;99.90;;;;;;4966689;28;20473;-74
2023/08/16 09:36:35;;;;;;;14.13;9.37;;;22.80;99.90;;;;;;4964891;28;21170;-74
2023/08/16 09:39:11;;;;;;;11.40;8.60;;;22.80;99.90;;;;;;4963796;28;20592;-74
2023/08/16 09:41:46;;;;;;;12.57;9.30;;;22.90;99.90;;;;;;4966058;28;20675;-74
2023/08/16 09:44:12;;;;;;;12.80;9.13;;;22.80;99.90;;;;;;4964770;28;20604;-74
2023/08/16 09:46:38;;;;;;;15.07;10.20;;;22.90;99.90;;;;;;4964303;28;20469;-74
2023/08/16 09:49:08;;;;;;;12.27;9.30;;;23.00;99.90;;;;;;4966661;28;20220;-74
2023/08/16 09:51:41;;;;;;;16.63;10.13;;;23.20;99.90;;;;;;4982002;28;20228;-74
2023/08/16 09:54:14;;;;;;;13.73;9.83;;;23.20;99.90;;;;;;4964404;28;21221;-74
2023/08/16 09:56:41;;;;;;;16.50;9.33;;;23.30;99.90;;;;;;4981842;28;20995;-73
2023/08/16 09:59:11;;;;;;;13.93;9.33;;;23.30;99.90;;;;;;4951244;28;20603;-74
2023/08/16 10:01:37;;;;;;;13.33;10.40;;;23.40;99.90;;;;;;4979293;28;20563;-74
2023/08/16 10:04:04;;;;;;;14.77;11.33;;;23.40;99.90;;;;;;4979163;28;20498;-73
2023/08/16 10:06:31;;;;;;;13.53;10.47;;;23.50;99.90;;;;;;4982420;28;20948;-74
2023/08/16 10:08:57;;;;;;;13.73;9.70;;;23.60;99.90;;;;;;4982169;28;20475;-74
2023/08/16 10:11:24;;;;;;;9.47;8.40;;;23.60;99.90;;;;;;4983005;28;20486;-75
2023/08/16 10:13:50;;;;;;;15.10;11.67;;;24.00;99.90;;;;;;4975003;28;20582;-74
2023/08/16 10:16:21;;;;;;;11.60;9.80;;;24.20;99.90;;;;;;4972927;28;20490;-74
2023/08/16 10:18:47;;;;;;;13.50;8.57;;;24.20;99.90;;;;;;5003109;28;20632;-74
2023/08/16 10:21:18;;;;;;;11.53;8.47;;;24.30;99.90;;;;;;4971789;28;20465;-74
2023/08/16 10:23:44;;;;;;;10.50;7.53;;;24.50;99.90;;;;;;4961864;28;20470;-74
2023/08/16 10:26:15;;;;;;;9.20;8.23;;;24.60;99.90;;;;;;4984152;28;20558;-74
2023/08/16 10:28:55;;;;;;;10.60;8.30;;;24.60;99.90;;;;;;4983250;28;20470;-74
2023/08/16 10:31:25;;;;;;;9.30;8.40;;;24.60;99.90;;;;;;4985148;28;20478;-75
2023/08/16 10:33:53;;;;;;;8.07;7.27;;;24.60;99.90;;;;;;5001892;28;20572;-74
2023/08/16 10:36:20;;;;;;;11.63;10.00;;;24.50;99.90;;;;;;4982055;28;20481;-74
2023/08/16 10:38:56;;;;;;;11.03;9.20;;;24.50;99.90;;;;;;4968036;28;20483;-74
2023/08/16 10:41:22;;;;;;;12.43;9.50;;;24.40;99.90;;;;;;4968073;28;20474;-74
2023/08/16 10:43:54;;;;;;;10.13;9.07;;;24.40;99.90;;;;;;4967839;28;21299;-74
2023/08/16 10:46:30;;;;;;;9.93;8.33;;;24.50;99.90;;;;;;4964814;28;20467;-73
2023/08/16 10:49:01;;;;;;;10.63;9.03;;;24.60;99.90;;;;;;4971550;28;20472;-73
2023/08/16 10:51:27;;;;;;;10.50;8.37;;;24.60;99.90;;;;;;4983327;28;21271;-74
2023/08/16 10:53:57;;;;;;;9.53;8.57;;;24.70;99.90;;;;;;4967639;28;20451;-74
2023/08/16 10:56:23;;;;;;;10.20;8.83;;;24.80;99.90;;;;;;4985329;28;20840;-74
2023/08/16 10:58:51;;;;;;;8.83;7.47;;;25.00;99.90;;;;;;4972353;28;21086;-74
2023/08/16 11:01:32;;;;;;;10.10;8.70;;;25.10;99.90;;;;;;4959906;28;20466;-74
2023/08/16 11:04:06;;;;;;;8.73;7.83;;;25.10;99.90;;;;;;4998691;28;21264;-74
2023/08/16 11:06:32;;;;;;;9.77;8.00;;;25.20;99.90;;;;;;4968314;28;20466;-74
2023/08/16 11:09:00;;;;;;;9.27;8.37;;;25.40;99.90;;;;;;4966852;28;20505;-74
2023/08/16 11:11:26;;;;;;;9.60;8.63;;;25.50;99.90;;;;;;4965095;28;20466;-74
2023/08/16 11:13:58;;;;;;;10.07;8.60;;;25.60;99.90;;;;;;4965547;28;20491;-74
2023/08/16 11:16:23;;;;;;;8.27;7.47;;;25.70;99.90;;;;;;5000416;28;20224;-75
2023/08/16 11:18:49;;;;;;;7.90;7.20;;;25.90;99.90;;;;;;4980495;28;20507;-73
2023/08/16 11:21:16;;;;;;;9.50;8.50;;;26.10;99.90;;;;;;4979057;28;20779;-74
2023/08/16 11:23:43;;;;;;;8.70;7.80;;;26.20;99.90;;;;;;4975412;28;20222;-74
2023/08/16 11:26:10;;;;;;;9.77;8.57;;;26.20;99.90;;;;;;4964749;28;20475;-74
2023/08/16 11:28:39;;;;;;;8.93;8.03;;;26.10;99.90;;;;;;4963745;28;20545;-74
2023/08/16 11:31:07;;;;;;;8.27;7.50;;;26.00;99.90;;;;;;4963964;28;20784;-73
2023/08/16 11:33:37;;;;;;;8.87;7.97;;;26.20;99.90;;;;;;4982793;28;21364;-74
2023/08/16 11:36:07;;;;;;;7.30;6.60;;;26.40;99.90;;;;;;4981148;28;21058;-74
2023/08/16 11:38:34;;;;;;;10.13;7.50;;;26.50;99.90;;;;;;4962075;28;20506;-74
2023/08/16 11:41:00;;;;;;;8.87;6.50;;;26.50;99.90;;;;;;4957944;28;20444;-75
2023/08/16 11:43:27;;;;;;;12.00;8.17;;;26.50;99.90;;;;;;4979966;28;20459;-73
2023/08/16 11:45:53;;;;;;;8.43;7.70;;;26.50;99.90;;;;;;4967934;28;21070;-75
2023/08/16 11:48:19;;;;;;;8.40;7.13;;;26.40;99.90;;;;;;4966282;28;20480;-74
2023/08/16 11:50:45;;;;;;;6.40;5.87;;;26.30;99.90;;;;;;4956384;28;20242;-74
2023/08/16 11:53:16;;;;;;;6.97;6.33;;;26.50;99.90;;;;;;4985078;28;20476;-74
2023/08/16 11:55:42;;;;;;;6.57;5.97;;;26.60;99.90;;;;;;4971411;28;20274;-74
2023/08/16 11:58:09;;;;;;;6.30;5.73;;;26.80;99.90;;;;;;4982808;28;20506;-74
2023/08/16 12:00:36;;;;;;;7.07;6.23;;;26.80;99.90;;;;;;4981025;28;20613;-74
2023/08/16 12:03:03;;;;;;;6.80;6.20;;;26.70;99.90;;;;;;4980357;28;20478;-73
2023/08/16 12:05:36;;;;;;;5.57;5.07;;;26.70;99.90;;;;;;4958364;28;20470;-74
2023/08/16 12:08:07;;;;;;;5.70;5.20;;;26.80;99.90;;;;;;4998782;28;20552;-74
2023/08/16 12:10:33;;;;;;;5.83;5.33;;;26.80;99.90;;;;;;4978902;28;20483;-75
2023/08/16 12:13:09;;;;;;;6.27;5.70;;;26.80;99.90;;;;;;4964099;28;20527;-74
2023/08/16 12:15:35;;;;;;;6.60;5.73;;;26.80;99.90;;;;;;4965413;28;20465;-74
2023/08/16 12:18:01;;;;;;;6.37;5.87;;;26.80;99.90;;;;;;4981891;28;20559;-74
2023/08/16 12:20:29;;;;;;;5.40;5.00;;;26.90;99.90;;;;;;4973393;28;20482;-74
2023/08/16 12:22:55;;;;;;;6.20;5.70;;;26.80;99.90;;;;;;4981145;28;20224;-75
2023/08/16 12:25:21;;;;;;;6.20;5.60;;;26.90;99.90;;;;;;4983147;28;20483;-74
2023/08/16 12:27:47;;;;;;;4.87;4.47;;;26.90;99.90;;;;;;4963619;28;20470;-74
2023/08/16 12:30:13;;;;;;;6.90;6.20;;;26.90;99.90;;;;;;4963466;28;20227;-74
2023/08/16 12:32:38;;;;;;;5.93;5.33;;;26.90;99.90;;;;;;4997236;28;20593;-74
2023/08/16 12:35:04;;;;;;;5.57;4.93;;;27.00;99.90;;;;;;4967553;28;20285;-74
2023/08/16 12:37:30;;;;;;;6.93;5.03;;;27.00;99.90;;;;;;4963935;28;20224;-74
2023/08/16 12:39:56;;;;;;;5.30;4.90;;;27.10;99.90;;;;;;4965282;28;20277;-75
2023/08/16 12:42:22;;;;;;;5.83;5.33;;;27.20;99.90;;;;;;4950037;28;20982;-74